.
WxDataArchive / Data Records for 2007-01-30
2007-01-29 January 2007 2007-01-31

Data Records for Tuesday, 30 January 2007

Time	Temp	Chill	HIndex	Humid	Dewpt	 Wind 	HiWind	WindDir	Rain 	Barom 
-----	----	-----	------	-----	-----	------	------	-------	-----	----- 
00:00	20.8	20.8	20.8	80	15.6	0	0	---	0.00	29.915 
00:05	20.6	20.6	20.6	81	15.7	0	0	---	0.00	29.915 
00:10	20.6	20.6	20.6	81	15.7	0	0	---	0.00	29.915 
00:15	20.6	20.6	20.6	81	15.7	0	0	---	0.00	29.918 
00:20	20.8	20.8	20.8	82	16.2	0	0	---	0.00	29.918 
00:25	20.8	20.8	20.8	82	16.2	0	1	248	0.00	29.918 
00:30	21.0	21.0	21.0	82	16.4	0	1	248	0.00	29.912 
00:35	21.1	21.1	21.1	83	16.8	0	0	---	0.00	29.912 
00:40	21.3	21.3	21.3	84	17.2	0	0	---	0.00	29.912 
00:45	21.3	21.3	21.3	85	17.5	0	1	248	0.00	29.910 
00:50	21.4	21.4	21.4	86	17.9	0	1	248	0.00	29.910 
00:55	21.3	21.3	21.3	86	17.8	0	1	248	0.00	29.910 
01:00	21.3	21.3	21.3	87	18.0	0	1	248	0.00	29.908 
01:05	21.3	21.3	21.3	87	18.0	0	1	248	0.00	29.908 
01:10	21.3	21.3	21.3	87	18.0	0	1	248	0.00	29.908 
01:15	21.3	21.3	21.3	88	18.3	0	2	248	0.00	29.895 
01:20	21.4	21.4	21.4	88	18.4	0	1	225	0.00	29.895 
01:25	21.4	21.4	21.4	88	18.4	0	1	225	0.00	29.895 
01:30	21.4	21.4	21.4	88	18.4	0	1	225	0.00	29.886 
01:35	21.4	21.4	21.4	88	18.4	0	0	---	0.00	29.886 
01:40	21.4	21.4	21.4	88	18.4	0	0	---	0.00	29.886 
01:45	21.4	21.4	21.4	89	18.7	0	0	---	0.00	29.880 
01:50	21.6	21.6	21.6	89	18.9	0	1	225	0.00	29.880 
01:55	21.6	21.6	21.6	89	18.9	0	0	---	0.00	29.880 
02:00	21.6	21.6	21.6	89	18.9	0	0	---	0.00	29.878 
02:05	21.6	21.6	21.6	89	18.9	0	0	---	0.00	29.878 
02:10	21.6	21.6	21.6	89	18.9	0	1	225	0.00	29.878 
02:15	21.6	21.6	21.6	89	18.9	0	1	225	0.00	29.868 
02:20	21.6	21.6	21.6	89	18.9	0	0	---	0.00	29.868 
02:25	21.6	21.6	21.6	90	19.1	0	0	---	0.00	29.868 
02:30	21.6	21.6	21.6	90	19.1	0	0	---	0.00	29.873 
02:35	21.6	21.6	21.6	90	19.1	0	0	---	0.00	29.873 
02:40	21.6	21.6	21.6	90	19.1	0	0	---	0.00	29.873 
02:45	21.6	21.6	21.6	90	19.1	0	0	---	0.00	29.870 
02:50	21.6	21.6	21.6	90	19.1	0	0	---	0.00	29.870 
02:55	21.6	21.6	21.6	90	19.1	0	0	---	0.00	29.870 
03:00	21.8	21.8	21.8	90	19.3	0	0	---	0.00	29.869 
03:05	21.8	21.8	21.8	90	19.3	0	0	---	0.00	29.869 
03:10	21.8	21.8	21.8	90	19.3	0	0	---	0.00	29.869 
03:15	21.8	21.8	21.8	90	19.3	0	0	---	0.00	29.864 
03:20	21.8	21.8	21.8	90	19.3	0	0	---	0.00	29.864 
03:25	21.8	21.8	21.8	90	19.3	0	0	---	0.00	29.864 
03:30	21.8	21.8	21.8	90	19.3	0	0	---	0.00	29.861 
03:35	21.8	21.8	21.8	90	19.3	0	0	---	0.00	29.861 
03:40	21.8	21.8	21.8	90	19.3	0	0	---	0.00	29.861 
03:45	21.9	21.9	21.9	90	19.4	0	0	---	0.00	29.852 
03:50	21.9	21.9	21.9	90	19.4	0	0	---	0.00	29.852 
03:55	21.9	21.9	21.9	90	19.4	0	0	---	0.00	29.852 
04:00	21.9	21.9	21.9	90	19.4	0	0	---	0.00	29.847 
04:05	21.9	21.9	21.9	90	19.4	0	0	---	0.00	29.847 
04:10	21.9	21.9	21.9	90	19.4	0	0	---	0.00	29.847 
04:15	21.9	21.9	21.9	91	19.7	0	0	---	0.00	29.844 
04:20	21.9	21.9	21.9	91	19.7	0	0	---	0.00	29.844 
04:25	21.9	21.9	21.9	91	19.7	0	0	---	0.00	29.844 
04:30	21.9	21.9	21.9	91	19.7	0	0	---	0.00	29.843 
04:35	21.9	21.9	21.9	91	19.7	0	0	---	0.00	29.843 
04:40	22.1	22.1	22.1	91	19.9	0	0	---	0.00	29.843 
04:45	22.1	22.1	22.1	91	19.9	0	0	---	0.00	29.840 
04:50	22.1	22.1	22.1	91	19.9	0	0	---	0.00	29.840 
04:55	22.1	22.1	22.1	91	19.9	0	0	---	0.00	29.840 
05:00	22.2	22.2	22.2	91	20.0	0	2	248	0.00	29.843 
05:05	22.5	22.5	22.5	91	20.3	0	2	248	0.00	29.843 
05:10	22.7	22.7	22.7	91	20.5	1	5	248	0.00	29.843 
05:15	22.4	22.4	22.4	90	19.9	2	10	270	0.00	29.843 
05:20	21.6	21.6	21.6	88	18.6	2	6	270	0.00	29.843 
05:25	20.8	20.8	20.8	87	17.6	3	10	270	0.00	29.843 
05:30	20.3	20.3	20.3	86	16.8	3	13	270	0.00	29.851 
05:35	19.7	19.7	19.7	84	15.7	3	13	270	0.00	29.851 
05:40	19.4	19.4	19.4	83	15.1	2	6	270	0.00	29.851 
05:45	19.2	19.2	19.2	81	14.3	2	8	270	0.00	29.855 
05:50	19.2	19.2	19.2	81	14.3	2	5	248	0.00	29.855 
05:55	19.4	19.4	19.4	80	14.3	3	10	270	0.00	29.855 
06:00	19.4	19.4	19.4	81	14.5	2	6	270	0.00	29.860 
06:05	19.2	19.2	19.2	81	14.3	2	6	270	0.00	29.860 
06:10	19.2	19.2	19.2	80	14.1	3	13	270	0.00	29.860 
06:15	18.9	18.9	18.9	80	13.8	3	10	270	0.00	29.861 
06:20	18.8	18.8	18.8	81	14.0	3	10	270	0.00	29.861 
06:25	18.4	18.4	18.4	82	13.8	2	7	270	0.00	29.861 
06:30	18.0	18.0	18.0	82	13.5	3	10	270	0.00	29.865 
06:35	17.7	17.7	17.7	83	13.4	3	10	270	0.00	29.865 
06:40	17.3	17.3	17.3	84	13.3	3	7	270	0.00	29.865 
06:45	17.0	17.0	17.0	84	13.0	3	11	270	0.00	29.872 
06:50	16.9	16.9	16.9	84	12.9	2	7	270	0.00	29.872 
06:55	16.7	16.7	16.7	83	12.5	2	4	270	0.00	29.872 
07:00	16.5	16.5	16.5	84	12.5	1	5	248	0.00	29.880 
07:05	16.4	16.4	16.4	84	12.4	1	7	248	0.00	29.880 
07:10	16.2	16.2	16.2	84	12.2	1	6	270	0.00	29.880 
07:15	15.9	15.9	15.9	84	11.9	2	5	270	0.00	29.888 
07:20	15.6	15.6	15.6	83	11.4	2	8	270	0.00	29.888 
07:25	15.2	15.2	15.2	82	10.7	2	5	270	0.00	29.888 
07:30	15.1	15.1	15.1	82	10.6	2	5	270	0.00	29.892 
07:35	14.6	14.6	14.6	81	9.9	3	9	270	0.00	29.892 
07:40	14.4	14.4	14.4	80	9.4	3	9	270	0.00	29.892 
07:45	14.3	14.3	14.3	80	9.3	2	10	248	0.00	29.903 
07:50	14.1	14.1	14.1	80	9.1	3	9	270	0.00	29.903 
07:55	14.0	14.0	14.0	79	8.7	3	6	270	0.00	29.903 
08:00	13.8	13.8	13.8	79	8.5	2	10	270	0.00	29.904 
08:05	13.6	13.6	13.6	79	8.3	3	9	270	0.00	29.904 
08:10	13.3	13.3	13.3	78	7.7	3	10	270	0.00	29.904 
08:15	13.1	13.1	13.1	78	7.6	2	7	270	0.00	29.902 
08:20	12.8	12.8	12.8	78	7.3	2	9	270	0.00	29.902 
08:25	12.4	5.4	12.4	78	6.9	4	17	270	0.00	29.902 
08:30	12.3	12.3	12.3	78	6.8	2	5	270	0.00	29.902 
08:35	12.3	12.3	12.3	78	6.8	2	11	270	0.00	29.902 
08:40	12.1	5.1	12.1	77	6.3	4	11	248	0.00	29.902 
08:45	12.1	12.1	12.1	77	6.3	3	11	270	0.00	29.912 
08:50	12.1	12.1	12.1	77	6.3	3	12	270	0.00	29.912 
08:55	12.3	12.3	12.3	78	6.8	3	11	270	0.00	29.912 
09:00	12.3	12.3	12.3	78	6.8	3	11	270	0.00	29.918 
09:05	12.3	12.3	12.3	79	7.1	3	7	270	0.00	29.918 
09:10	12.1	5.1	12.1	80	7.1	4	10	270	0.00	29.918 
09:15	12.1	12.1	12.1	81	7.4	2	6	270	0.00	29.925 
09:20	12.3	12.3	12.3	81	7.6	1	6	270	0.00	29.925 
09:25	12.3	12.3	12.3	81	7.6	2	9	270	0.00	29.925 
09:30	12.3	12.3	12.3	81	7.6	3	8	270	0.00	29.932 
09:35	12.4	12.4	12.4	80	7.4	2	5	248	0.00	29.932 
09:40	12.6	12.6	12.6	80	7.6	3	9	270	0.00	29.932 
09:45	12.8	12.8	12.8	79	7.5	3	10	270	0.00	29.933 
09:50	12.9	12.9	12.9	79	7.6	3	9	270	0.00	29.933 
09:55	13.3	13.3	13.3	79	8.0	2	6	270	0.00	29.933 
10:00	13.6	13.6	13.6	80	8.6	2	5	270	0.00	29.934 
10:05	13.8	13.8	13.8	79	8.5	3	9	270	0.00	29.934 
10:10	14.0	14.0	14.0	79	8.7	3	9	270	0.00	29.934 
10:15	14.3	14.3	14.3	80	9.3	3	11	270	0.00	29.944 
10:20	14.4	14.4	14.4	79	9.1	3	7	270	0.00	29.944 
10:25	14.6	8.0	14.6	79	9.3	4	9	270	0.00	29.944 
10:30	14.9	8.3	14.9	78	9.3	4	11	270	0.00	29.946 
10:35	15.1	15.1	15.1	78	9.5	3	6	270	0.00	29.946 
10:40	15.2	15.2	15.2	78	9.6	3	11	270	0.00	29.946 
10:45	15.2	15.2	15.2	78	9.6	3	9	270	0.00	29.952 
10:50	14.9	14.9	14.9	77	9.0	3	10	270	0.00	29.952 
10:55	15.2	8.7	15.2	78	9.6	4	11	270	0.00	29.952 
11:00	15.6	15.6	15.6	77	9.7	3	11	270	0.00	29.961 
11:05	16.1	9.7	16.1	77	10.2	4	10	270	0.00	29.961 
11:10	16.7	16.7	16.7	78	11.1	3	11	270	0.00	29.961 
11:15	16.7	10.4	16.7	79	11.3	4	10	270	0.00	29.964 
11:20	16.9	10.6	16.9	80	11.8	4	9	270	0.00	29.964 
11:25	17.0	10.7	17.0	80	11.9	4	10	270	0.00	29.964 
11:30	17.2	11.0	17.2	80	12.1	4	10	270	0.00	29.969 
11:35	17.3	17.3	17.3	79	11.9	3	10	270	0.00	29.969 
11:40	17.3	17.3	17.3	80	12.2	2	5	270	0.00	29.969 
11:45	17.3	11.1	17.3	78	11.6	4	9	270	0.00	29.975 
11:50	17.3	17.3	17.3	78	11.6	3	6	270	0.00	29.975 
11:55	17.3	11.1	17.3	76	11.1	4	11	270	0.00	29.975 
12:00	17.2	9.7	17.2	75	10.7	5	12	270	0.00	29.977 
12:05	17.2	9.7	17.2	75	10.7	5	12	270	0.00	29.977 
12:10	17.3	9.8	17.3	73	10.2	5	12	270	0.00	29.977 
12:15	17.0	10.7	17.0	73	9.9	4	10	270	0.00	29.980 
12:20	16.9	9.3	16.9	72	9.5	5	13	270	0.00	29.980 
12:25	16.7	10.4	16.7	73	9.6	4	13	270	0.00	29.980 
12:30	16.7	10.4	16.7	72	9.3	4	9	270	0.00	29.987 
12:35	16.7	10.4	16.7	72	9.3	4	14	270	0.00	29.987 
12:40	16.7	16.7	16.7	72	9.3	3	6	270	0.00	29.987 
12:45	16.5	8.9	16.5	71	8.8	5	13	270	0.00	29.991 
12:50	16.5	10.2	16.5	71	8.8	4	9	270	0.00	29.991 
12:55	16.4	8.8	16.4	71	8.7	5	14	270	0.00	29.991 
13:00	16.4	10.1	16.4	71	8.7	4	10	270	0.00	29.994 
13:05	16.7	10.4	16.7	70	8.6	4	11	270	0.00	29.994 
13:10	17.0	17.0	17.0	71	9.2	3	13	270	0.00	29.994 
13:15	17.0	10.7	17.0	69	8.6	4	10	270	0.00	29.995 
13:20	16.9	10.6	16.9	68	8.2	4	9	270	0.00	29.995 
13:25	16.7	10.4	16.7	68	8.0	4	7	270	0.00	29.995 
13:30	16.4	8.8	16.4	68	7.7	5	10	270	0.00	30.004 
13:35	16.2	9.8	16.2	69	7.8	4	14	270	0.00	30.004 
13:40	16.2	9.8	16.2	68	7.5	4	10	270	0.00	30.004 
13:45	16.1	9.7	16.1	69	7.8	4	14	270	0.00	30.005 
13:50	16.2	16.2	16.2	68	7.5	3	9	270	0.00	30.005 
13:55	16.9	16.9	16.9	67	7.9	3	10	248	0.00	30.005 
14:00	17.2	11.0	17.2	66	7.8	4	10	270	0.00	30.006 
14:05	17.2	11.0	17.2	65	7.5	4	10	270	0.00	30.006 
14:10	16.9	9.3	16.9	65	7.2	5	14	270	0.00	30.006 
14:15	16.9	9.3	16.9	66	7.5	5	12	270	0.00	30.006 
14:20	17.0	10.7	17.0	65	7.3	4	12	270	0.00	30.006 
14:25	17.2	11.0	17.2	65	7.5	4	11	270	0.00	30.006 
14:30	17.3	11.1	17.3	65	7.6	4	16	270	0.00	30.007 
14:35	17.2	9.7	17.2	64	7.1	5	10	270	0.00	30.007 
14:40	17.0	10.7	17.0	64	7.0	4	11	270	0.00	30.007 
14:45	17.2	11.0	17.2	65	7.5	4	8	270	0.00	30.008 
14:50	17.2	9.7	17.2	63	6.8	5	16	270	0.00	30.008 
14:55	16.9	9.3	16.9	63	6.5	5	15	270	0.00	30.008 
15:00	17.0	17.0	17.0	64	7.0	3	11	270	0.00	30.020 
15:05	17.2	17.2	17.2	62	6.4	3	14	292	0.00	30.020 
15:10	17.2	11.0	17.2	61	6.1	4	18	270	0.00	30.020 
15:15	17.2	17.2	17.2	62	6.4	3	10	270	0.00	30.024 
15:20	17.0	10.7	17.0	62	6.3	4	11	270	0.00	30.024 
15:25	17.0	10.7	17.0	62	6.3	4	12	270	0.00	30.024 
15:30	16.5	10.2	16.5	64	6.5	4	7	270	0.00	30.038 
15:35	16.4	10.1	16.4	65	6.7	4	15	270	0.00	30.038 
15:40	16.1	9.7	16.1	65	6.4	4	11	270	0.00	30.038 
15:45	15.7	7.9	15.7	64	5.7	5	13	270	0.00	30.043 
15:50	15.4	8.9	15.4	65	5.8	4	12	270	0.00	30.043 
15:55	15.2	8.7	15.2	65	5.6	4	7	270	0.00	30.043 
16:00	15.1	7.2	15.1	65	5.5	5	12	270	0.00	30.050 
16:05	14.8	6.9	14.8	65	5.2	5	16	270	0.00	30.050 
16:10	14.6	14.6	14.6	65	5.0	3	10	270	0.00	30.050 
16:15	14.6	8.0	14.6	65	5.0	4	10	270	0.00	30.055 
16:20	14.6	8.0	14.6	66	5.3	4	14	270	0.00	30.055 
16:25	14.6	14.6	14.6	66	5.3	3	10	270	0.00	30.055 
16:30	14.4	14.4	14.4	66	5.1	3	9	270	0.00	30.059 
16:35	14.1	14.1	14.1	65	4.5	3	11	270	0.00	30.059 
16:40	14.0	7.3	14.0	66	4.8	4	10	270	0.00	30.059 
16:45	13.8	13.8	13.8	66	4.6	3	13	270	0.00	30.065 
16:50	13.6	13.6	13.6	66	4.4	3	6	270	0.00	30.065 
16:55	13.5	13.5	13.5	67	4.6	3	9	270	0.00	30.065 
17:00	13.5	13.5	13.5	67	4.6	3	9	270	0.00	30.069 
17:05	13.3	13.3	13.3	68	4.7	3	12	270	0.00	30.069 
17:10	13.1	6.2	13.1	68	4.6	4	11	270	0.00	30.069 
17:15	12.9	12.9	12.9	69	4.7	3	11	270	0.00	30.076 
17:20	12.8	12.8	12.8	69	4.6	3	7	270	0.00	30.076 
17:25	12.6	12.6	12.6	70	4.7	2	9	270	0.00	30.076 
17:30	12.6	5.7	12.6	70	4.7	4	11	270	0.00	30.077 
17:35	12.4	12.4	12.4	70	4.5	3	14	270	0.00	30.077 
17:40	12.3	12.3	12.3	71	4.7	2	9	270	0.00	30.077 
17:45	12.1	12.1	12.1	71	4.5	3	10	270	0.00	30.089 
17:50	12.1	12.1	12.1	72	4.8	3	13	270	0.00	30.089 
17:55	11.9	11.9	11.9	72	4.6	3	9	270	0.00	30.089 
18:00	11.9	11.9	11.9	73	4.9	3	10	270	0.00	30.089 
18:05	11.9	11.9	11.9	73	4.9	3	10	270	0.00	30.089 
18:10	11.7	11.7	11.7	73	4.7	2	10	270	0.00	30.089 
18:15	11.7	11.7	11.7	73	4.7	3	10	270	0.00	30.095 
18:20	11.7	11.7	11.7	73	4.7	3	9	270	0.00	30.095 
18:25	11.7	11.7	11.7	73	4.7	2	9	270	0.00	30.095 
18:30	11.6	11.6	11.6	74	4.9	2	10	270	0.00	30.097 
18:35	11.6	4.5	11.6	74	4.9	4	15	270	0.00	30.097 
18:40	11.6	11.6	11.6	74	4.9	3	9	270	0.00	30.097 
18:45	11.4	4.3	11.4	74	4.8	4	11	270	0.00	30.107 
18:50	11.4	11.4	11.4	74	4.8	3	10	270	0.00	30.107 
18:55	11.4	11.4	11.4	74	4.8	3	9	270	0.00	30.107 
19:00	11.2	11.2	11.2	75	4.9	3	10	270	0.00	30.112 
19:05	11.2	11.2	11.2	75	4.9	3	9	270	0.00	30.112 
19:10	11.2	4.0	11.2	75	4.9	4	10	248	0.00	30.112 
19:15	11.2	11.2	11.2	75	4.9	3	9	248	0.00	30.123 
19:20	11.1	11.1	11.1	75	4.8	3	12	270	0.00	30.123 
19:25	11.1	11.1	11.1	76	5.0	2	12	270	0.00	30.123 
19:30	11.1	3.9	11.1	76	5.0	4	14	270	0.00	30.124 
19:35	11.1	11.1	11.1	76	5.0	3	10	270	0.00	30.124 
19:40	10.9	10.9	10.9	76	4.8	3	10	270	0.00	30.124 
19:45	10.9	10.9	10.9	76	4.8	2	10	270	0.00	30.126 
19:50	10.9	10.9	10.9	76	4.8	3	9	248	0.00	30.126 
19:55	10.9	10.9	10.9	77	5.1	3	10	270	0.00	30.126 
20:00	10.9	3.7	10.9	76	4.8	4	12	270	0.00	30.124 
20:05	10.9	10.9	10.9	77	5.1	3	9	270	0.00	30.124 
20:10	11.1	11.1	11.1	77	5.3	3	12	270	0.00	30.124 
20:15	11.2	11.2	11.2	77	5.4	3	10	270	0.00	30.129 
20:20	11.2	11.2	11.2	77	5.4	3	10	270	0.00	30.129 
20:25	11.4	11.4	11.4	77	5.6	3	9	270	0.00	30.129 
20:30	11.6	11.6	11.6	77	5.8	2	7	270	0.00	30.129 
20:35	11.6	4.5	11.6	77	5.8	4	8	270	0.00	30.129 
20:40	11.7	11.7	11.7	77	5.9	3	10	270	0.00	30.129 
20:45	11.7	11.7	11.7	77	5.9	3	12	270	0.00	30.130 
20:50	11.9	4.9	11.9	76	5.8	4	12	270	0.00	30.130 
20:55	11.9	4.9	11.9	76	5.8	4	13	270	0.00	30.130 
21:00	11.9	4.9	11.9	76	5.8	4	11	270	0.00	30.128 
21:05	11.7	4.6	11.7	75	5.3	4	14	270	0.00	30.128 
21:10	11.6	4.5	11.6	75	5.2	4	11	270	0.00	30.128 
21:15	11.4	4.3	11.4	75	5.0	4	12	270	0.00	30.128 
21:20	11.2	11.2	11.2	75	4.9	3	7	270	0.00	30.128 
21:25	11.1	11.1	11.1	76	5.0	3	10	270	0.00	30.128 
21:30	10.9	10.9	10.9	76	4.8	3	10	270	0.00	30.123 
21:35	10.9	3.7	10.9	76	4.8	4	12	270	0.00	30.123 
21:40	10.9	3.7	10.9	76	4.8	4	13	270	0.00	30.123 
21:45	10.7	10.7	10.7	76	4.7	3	9	270	0.00	30.131 
21:50	10.7	10.7	10.7	76	4.7	3	8	270	0.00	30.131 
21:55	10.7	3.5	10.7	76	4.7	4	11	270	0.00	30.131 
22:00	10.9	3.7	10.9	76	4.8	4	14	270	0.00	30.131 
22:05	10.7	3.5	10.7	76	4.7	4	11	270	0.00	30.131 
22:10	10.7	10.7	10.7	77	4.9	3	10	270	0.00	30.131 
22:15	10.7	10.7	10.7	77	4.9	3	11	270	0.00	30.129 
22:20	10.7	3.5	10.7	77	4.9	4	10	270	0.00	30.129 
22:25	10.7	3.5	10.7	77	4.9	4	12	270	0.00	30.129 
22:30	10.7	10.7	10.7	77	4.9	3	12	270	0.00	30.134 
22:35	10.7	10.7	10.7	77	4.9	3	14	270	0.00	30.134 
22:40	10.7	10.7	10.7	77	4.9	3	12	270	0.00	30.134 
22:45	10.7	10.7	10.7	78	5.2	3	9	270	0.00	30.134 
22:50	10.9	3.7	10.9	77	5.1	4	13	270	0.00	30.134 
22:55	10.7	10.7	10.7	77	4.9	3	9	270	0.00	30.134 
23:00	10.7	10.7	10.7	77	4.9	3	10	270	0.00	30.143 
23:05	10.7	3.5	10.7	78	5.2	4	11	270	0.00	30.143 
23:10	10.7	10.7	10.7	77	4.9	3	10	270	0.00	30.143 
23:15	10.7	3.5	10.7	77	4.9	4	11	270	0.00	30.143 
23:20	10.5	10.5	10.5	77	4.7	3	7	270	0.00	30.143 
23:25	10.5	10.5	10.5	77	4.7	3	10	270	0.00	30.143 
23:30	10.5	10.5	10.5	77	4.7	3	11	270	0.00	30.144 
23:35	10.4	10.4	10.4	77	4.6	3	7	270	0.00	30.144 
23:40	10.2	10.2	10.2	78	4.7	2	7	270	0.00	30.144 
23:45	10.2	10.2	10.2	78	4.7	2	10	270	0.00	30.149 
23:50	10.2	10.2	10.2	78	4.7	2	7	270	0.00	30.149 
23:55	10.0	10.0	10.0	78	4.5	2	10	248	0.00	30.149 

CoCoRaHS
IN-AL-39
A2 Web Hosting
Creative Commons License
GoDaddy
Look for:

loaded 2017-12-13 15:47:31 • last modified 2010-11-18 10:43:29
Privacy PolicyDisclaimer
• wx.awcolley.com is powered by PmWiki v.2002016 •
• all content (unless otherwise noted) © 2017 A W Colley